sensor_id;sensor_type;location;lat;lon;timestamp;temperature;humidity
9971;DHT22;5026;51.494;11.974;2023-11-22T00:01:24;0.80;99.90
9971;DHT22;5026;51.494;11.974;2023-11-22T00:03:51;0.50;99.90
9971;DHT22;5026;51.494;11.974;2023-11-22T00:06:18;0.50;99.90
9971;DHT22;5026;51.494;11.974;2023-11-22T00:08:46;0.50;99.90
9971;DHT22;5026;51.494;11.974;2023-11-22T00:11:13;0.60;99.90
9971;DHT22;5026;51.494;11.974;2023-11-22T00:13:40;0.60;99.90
9971;DHT22;5026;51.494;11.974;2023-11-22T00:16:08;0.60;99.90
9971;DHT22;5026;51.494;11.974;2023-11-22T00:18:36;0.60;99.90
9971;DHT22;5026;51.494;11.974;2023-11-22T00:21:04;0.60;99.90
9971;DHT22;5026;51.494;11.974;2023-11-22T00:23:31;0.60;99.90
9971;DHT22;5026;51.494;11.974;2023-11-22T00:26:00;0.60;99.90
9971;DHT22;5026;51.494;11.974;2023-11-22T00:28:27;0.60;99.90
9971;DHT22;5026;51.494;11.974;2023-11-22T00:30:54;0.60;99.90
9971;DHT22;5026;51.494;11.974;2023-11-22T00:33:22;0.70;99.90
9971;DHT22;5026;51.494;11.974;2023-11-22T00:35:49;0.80;99.90
9971;DHT22;5026;51.494;11.974;2023-11-22T00:38:18;0.80;99.90
9971;DHT22;5026;51.494;11.974;2023-11-22T00:40:45;0.90;99.90
9971;DHT22;5026;51.494;11.974;2023-11-22T00:43:12;0.90;99.90
9971;DHT22;5026;51.494;11.974;2023-11-22T00:45:39;0.90;99.90
9971;DHT22;5026;51.494;11.974;2023-11-22T00:48:06;0.90;99.90
9971;DHT22;5026;51.494;11.974;2023-11-22T00:50:37;0.90;99.90
9971;DHT22;5026;51.494;11.974;2023-11-22T00:53:04;0.90;99.90
9971;DHT22;5026;51.494;11.974;2023-11-22T00:55:31;1.00;99.90
9971;DHT22;5026;51.494;11.974;2023-11-22T00:57:57;1.00;99.90
9971;DHT22;5026;51.494;11.974;2023-11-22T01:00:29;1.00;99.90
9971;DHT22;5026;51.494;11.974;2023-11-22T01:02:56;1.10;99.90
9971;DHT22;5026;51.494;11.974;2023-11-22T01:05:23;1.10;99.90
9971;DHT22;5026;51.494;11.974;2023-11-22T01:07:51;1.00;99.90
9971;DHT22;5026;51.494;11.974;2023-11-22T01:10:18;1.00;99.90
9971;DHT22;5026;51.494;11.974;2023-11-22T01:12:45;0.90;99.90
9971;DHT22;5026;51.494;11.974;2023-11-22T01:15:12;0.80;99.90
9971;DHT22;5026;51.494;11.974;2023-11-22T01:17:39;0.90;99.90
9971;DHT22;5026;51.494;11.974;2023-11-22T01:20:07;0.80;99.90
9971;DHT22;5026;51.494;11.974;2023-11-22T01:22:36;0.70;99.90
9971;DHT22;5026;51.494;11.974;2023-11-22T01:25:06;0.60;99.90
9971;DHT22;5026;51.494;11.974;2023-11-22T01:27:33;0.50;99.90
9971;DHT22;5026;51.494;11.974;2023-11-22T01:30:01;0.40;99.90
9971;DHT22;5026;51.494;11.974;2023-11-22T01:32:29;0.40;99.90
9971;DHT22;5026;51.494;11.974;2023-11-22T01:34:56;0.40;99.90
9971;DHT22;5026;51.494;11.974;2023-11-22T01:37:24;0.30;99.90
9971;DHT22;5026;51.494;11.974;2023-11-22T01:39:51;0.30;99.90
9971;DHT22;5026;51.494;11.974;2023-11-22T01:42:21;0.30;99.90
9971;DHT22;5026;51.494;11.974;2023-11-22T01:44:49;0.40;99.90
9971;DHT22;5026;51.494;11.974;2023-11-22T01:47:16;0.40;99.90
9971;DHT22;5026;51.494;11.974;2023-11-22T01:49:44;0.40;99.90
9971;DHT22;5026;51.494;11.974;2023-11-22T01:52:12;0.40;99.90
9971;DHT22;5026;51.494;11.974;2023-11-22T01:54:40;0.40;99.90
9971;DHT22;5026;51.494;11.974;2023-11-22T01:57:08;0.30;99.90
9971;DHT22;5026;51.494;11.974;2023-11-22T01:59:38;0.30;99.90
9971;DHT22;5026;51.494;11.974;2023-11-22T02:02:05;0.20;99.90
9971;DHT22;5026;51.494;11.974;2023-11-22T02:04:32;0.20;99.90
9971;DHT22;5026;51.494;11.974;2023-11-22T02:06:59;0.10;99.90
9971;DHT22;5026;51.494;11.974;2023-11-22T02:09:26;0.00;99.90
9971;DHT22;5026;51.494;11.974;2023-11-22T02:11:53;0.00;99.90
9971;DHT22;5026;51.494;11.974;2023-11-22T02:14:20;-0.10;99.90
9971;DHT22;5026;51.494;11.974;2023-11-22T02:16:48;-0.10;99.90
9971;DHT22;5026;51.494;11.974;2023-11-22T02:19:16;-0.10;99.90
9971;DHT22;5026;51.494;11.974;2023-11-22T02:21:43;-0.10;99.90
9971;DHT22;5026;51.494;11.974;2023-11-22T02:24:12;-0.10;99.90
9971;DHT22;5026;51.494;11.974;2023-11-22T02:26:43;-0.10;99.90
9971;DHT22;5026;51.494;11.974;2023-11-22T02:29:11;-0.20;99.90
9971;DHT22;5026;51.494;11.974;2023-11-22T02:31:42;-0.20;99.90
9971;DHT22;5026;51.494;11.974;2023-11-22T02:34:09;-0.20;99.90
9971;DHT22;5026;51.494;11.974;2023-11-22T02:36:36;-0.20;99.90
9971;DHT22;5026;51.494;11.974;2023-11-22T02:39:03;-0.30;99.90
9971;DHT22;5026;51.494;11.974;2023-11-22T02:41:33;-0.30;99.90
9971;DHT22;5026;51.494;11.974;2023-11-22T02:44:00;0.00;99.90
9971;DHT22;5026;51.494;11.974;2023-11-22T02:46:27;-0.30;99.90
9971;DHT22;5026;51.494;11.974;2023-11-22T02:48:54;-0.30;99.90
9971;DHT22;5026;51.494;11.974;2023-11-22T02:51:21;-0.40;99.90
9971;DHT22;5026;51.494;11.974;2023-11-22T02:53:48;-0.40;99.90
9971;DHT22;5026;51.494;11.974;2023-11-22T02:56:16;-0.30;99.90
9971;DHT22;5026;51.494;11.974;2023-11-22T02:58:45;-0.40;99.90
9971;DHT22;5026;51.494;11.974;2023-11-22T03:01:12;-0.40;99.90
9971;DHT22;5026;51.494;11.974;2023-11-22T03:03:39;-0.40;99.90
9971;DHT22;5026;51.494;11.974;2023-11-22T03:06:06;-0.30;99.90
9971;DHT22;5026;51.494;11.974;2023-11-22T03:08:33;-0.40;99.90
9971;DHT22;5026;51.494;11.974;2023-11-22T03:11:00;-0.50;99.90
9971;DHT22;5026;51.494;11.974;2023-11-22T03:13:28;-0.40;99.90
9971;DHT22;5026;51.494;11.974;2023-11-22T03:15:56;-0.50;99.90
9971;DHT22;5026;51.494;11.974;2023-11-22T03:18:23;-0.60;99.90
9971;DHT22;5026;51.494;11.974;2023-11-22T03:20:50;-0.60;99.90
9971;DHT22;5026;51.494;11.974;2023-11-22T03:23:19;-0.60;99.90
9971;DHT22;5026;51.494;11.974;2023-11-22T03:25:47;-0.60;99.90
9971;DHT22;5026;51.494;11.974;2023-11-22T03:28:14;-0.60;99.90
9971;DHT22;5026;51.494;11.974;2023-11-22T03:30:41;-0.60;99.90
9971;DHT22;5026;51.494;11.974;2023-11-22T03:33:09;-0.70;99.90
9971;DHT22;5026;51.494;11.974;2023-11-22T03:35:36;-0.70;99.90
9971;DHT22;5026;51.494;11.974;2023-11-22T03:38:03;-0.70;99.90
9971;DHT22;5026;51.494;11.974;2023-11-22T03:40:30;-0.70;99.90
9971;DHT22;5026;51.494;11.974;2023-11-22T03:42:57;-0.70;99.90
9971;DHT22;5026;51.494;11.974;2023-11-22T03:45:24;-0.70;99.90
9971;DHT22;5026;51.494;11.974;2023-11-22T03:47:51;-0.70;99.90
9971;DHT22;5026;51.494;11.974;2023-11-22T03:50:20;-0.80;99.90
9971;DHT22;5026;51.494;11.974;2023-11-22T03:52:47;-0.70;99.90
9971;DHT22;5026;51.494;11.974;2023-11-22T03:55:14;-0.80;99.90
9971;DHT22;5026;51.494;11.974;2023-11-22T03:57:41;-0.80;99.90
9971;DHT22;5026;51.494;11.974;2023-11-22T04:00:08;-0.80;99.90
9971;DHT22;5026;51.494;11.974;2023-11-22T04:02:38;-0.90;99.90
9971;DHT22;5026;51.494;11.974;2023-11-22T04:05:06;-0.90;99.90
9971;DHT22;5026;51.494;11.974;2023-11-22T04:07:35;-0.90;99.90
9971;DHT22;5026;51.494;11.974;2023-11-22T04:10:04;-0.90;99.90
9971;DHT22;5026;51.494;11.974;2023-11-22T04:12:31;-0.90;99.90
9971;DHT22;5026;51.494;11.974;2023-11-22T04:14:58;-0.90;99.90
9971;DHT22;5026;51.494;11.974;2023-11-22T04:17:25;-0.90;99.90
9971;DHT22;5026;51.494;11.974;2023-11-22T04:19:52;-0.90;99.90
9971;DHT22;5026;51.494;11.974;2023-11-22T04:22:19;-0.90;99.90
9971;DHT22;5026;51.494;11.974;2023-11-22T04:24:47;-1.00;99.90
9971;DHT22;5026;51.494;11.974;2023-11-22T04:27:14;-1.00;99.90
9971;DHT22;5026;51.494;11.974;2023-11-22T04:29:41;-1.00;99.90
9971;DHT22;5026;51.494;11.974;2023-11-22T04:32:08;-1.00;99.90
9971;DHT22;5026;51.494;11.974;2023-11-22T04:34:35;-0.80;99.90
9971;DHT22;5026;51.494;11.974;2023-11-22T04:37:03;-1.00;99.90
9971;DHT22;5026;51.494;11.974;2023-11-22T04:39:31;-1.00;99.90
9971;DHT22;5026;51.494;11.974;2023-11-22T04:41:59;-1.00;99.90
9971;DHT22;5026;51.494;11.974;2023-11-22T04:44:26;-1.10;99.90
9971;DHT22;5026;51.494;11.974;2023-11-22T04:46:53;-1.10;99.90
9971;DHT22;5026;51.494;11.974;2023-11-22T04:49:20;-1.10;99.90
9971;DHT22;5026;51.494;11.974;2023-11-22T04:51:46;-1.10;99.90
9971;DHT22;5026;51.494;11.974;2023-11-22T04:54:14;-1.20;99.90
9971;DHT22;5026;51.494;11.974;2023-11-22T04:56:41;-1.20;99.90
9971;DHT22;5026;51.494;11.974;2023-11-22T04:59:10;-1.20;99.90
9971;DHT22;5026;51.494;11.974;2023-11-22T05:01:37;-1.20;99.90
9971;DHT22;5026;51.494;11.974;2023-11-22T05:04:04;-1.30;99.90
9971;DHT22;5026;51.494;11.974;2023-11-22T05:06:31;-1.30;99.90
9971;DHT22;5026;51.494;11.974;2023-11-22T05:08:58;-1.20;99.90
9971;DHT22;5026;51.494;11.974;2023-11-22T05:11:25;-1.30;99.90
9971;DHT22;5026;51.494;11.974;2023-11-22T05:13:52;-1.30;99.90
9971;DHT22;5026;51.494;11.974;2023-11-22T05:16:20;-1.30;99.90
9971;DHT22;5026;51.494;11.974;2023-11-22T05:18:47;-1.30;99.90
9971;DHT22;5026;51.494;11.974;2023-11-22T05:21:14;-1.30;99.90
9971;DHT22;5026;51.494;11.974;2023-11-22T05:23:41;-1.30;99.90
9971;DHT22;5026;51.494;11.974;2023-11-22T05:26:08;-1.40;99.90
9971;DHT22;5026;51.494;11.974;2023-11-22T05:28:35;-1.30;99.90
9971;DHT22;5026;51.494;11.974;2023-11-22T05:31:02;-1.30;99.90
9971;DHT22;5026;51.494;11.974;2023-11-22T05:33:30;-1.30;99.90
9971;DHT22;5026;51.494;11.974;2023-11-22T05:35:58;-1.40;99.90
9971;DHT22;5026;51.494;11.974;2023-11-22T05:38:24;-1.40;99.90
9971;DHT22;5026;51.494;11.974;2023-11-22T05:40:52;-1.40;99.90
9971;DHT22;5026;51.494;11.974;2023-11-22T05:43:19;-1.40;99.90
9971;DHT22;5026;51.494;11.974;2023-11-22T05:45:51;-1.40;99.90
9971;DHT22;5026;51.494;11.974;2023-11-22T05:48:18;-1.40;99.90
9971;DHT22;5026;51.494;11.974;2023-11-22T05:50:47;-1.40;99.90
9971;DHT22;5026;51.494;11.974;2023-11-22T05:53:14;-1.40;99.90
9971;DHT22;5026;51.494;11.974;2023-11-22T05:55:45;-1.40;99.90
9971;DHT22;5026;51.494;11.974;2023-11-22T05:58:12;-1.40;99.90
9971;DHT22;5026;51.494;11.974;2023-11-22T06:00:42;-1.50;99.90
9971;DHT22;5026;51.494;11.974;2023-11-22T06:03:09;-1.40;99.90
9971;DHT22;5026;51.494;11.974;2023-11-22T06:05:36;-1.50;99.90
9971;DHT22;5026;51.494;11.974;2023-11-22T06:08:04;-1.40;99.90
9971;DHT22;5026;51.494;11.974;2023-11-22T06:10:31;-1.50;99.90
9971;DHT22;5026;51.494;11.974;2023-11-22T06:12:59;-1.50;99.90
9971;DHT22;5026;51.494;11.974;2023-11-22T06:15:26;-1.50;99.90
9971;DHT22;5026;51.494;11.974;2023-11-22T06:17:53;-1.60;99.90
9971;DHT22;5026;51.494;11.974;2023-11-22T06:20:19;-1.50;99.90
9971;DHT22;5026;51.494;11.974;2023-11-22T06:22:47;-1.60;99.90
9971;DHT22;5026;51.494;11.974;2023-11-22T06:25:15;-1.60;99.90
9971;DHT22;5026;51.494;11.974;2023-11-22T06:27:42;-1.40;99.90
9971;DHT22;5026;51.494;11.974;2023-11-22T06:30:09;-1.60;99.90
9971;DHT22;5026;51.494;11.974;2023-11-22T06:32:36;-1.60;99.90
9971;DHT22;5026;51.494;11.974;2023-11-22T06:35:04;-1.60;99.90
9971;DHT22;5026;51.494;11.974;2023-11-22T06:37:34;-1.70;99.90
9971;DHT22;5026;51.494;11.974;2023-11-22T06:40:01;-1.70;99.90
9971;DHT22;5026;51.494;11.974;2023-11-22T06:42:30;-1.70;99.90
9971;DHT22;5026;51.494;11.974;2023-11-22T06:44:59;-1.70;99.90
9971;DHT22;5026;51.494;11.974;2023-11-22T06:47:26;-1.70;99.90
9971;DHT22;5026;51.494;11.974;2023-11-22T06:49:53;-1.70;99.90
9971;DHT22;5026;51.494;11.974;2023-11-22T06:52:20;-1.70;99.90
9971;DHT22;5026;51.494;11.974;2023-11-22T06:54:47;-1.70;99.90
9971;DHT22;5026;51.494;11.974;2023-11-22T06:57:14;-1.70;99.90
9971;DHT22;5026;51.494;11.974;2023-11-22T06:59:43;-1.70;99.90
9971;DHT22;5026;51.494;11.974;2023-11-22T07:02:10;-1.70;99.90
9971;DHT22;5026;51.494;11.974;2023-11-22T07:04:37;-1.50;99.90
9971;DHT22;5026;51.494;11.974;2023-11-22T07:07:05;-1.70;99.90
9971;DHT22;5026;51.494;11.974;2023-11-22T07:09:36;-1.70;99.90
9971;DHT22;5026;51.494;11.974;2023-11-22T07:12:05;-1.70;99.90
9971;DHT22;5026;51.494;11.974;2023-11-22T07:14:33;-1.60;99.90
9971;DHT22;5026;51.494;11.974;2023-11-22T07:17:02;-1.60;99.90
9971;DHT22;5026;51.494;11.974;2023-11-22T07:19:29;-1.60;99.90
9971;DHT22;5026;51.494;11.974;2023-11-22T07:21:56;-0.50;99.90
9971;DHT22;5026;51.494;11.974;2023-11-22T07:24:23;-1.50;99.90
9971;DHT22;5026;51.494;11.974;2023-11-22T07:26:50;-1.50;99.90
9971;DHT22;5026;51.494;11.974;2023-11-22T07:29:18;-1.40;99.90
9971;DHT22;5026;51.494;11.974;2023-11-22T07:31:46;-1.40;99.90
9971;DHT22;5026;51.494;11.974;2023-11-22T07:34:15;-1.40;99.90
9971;DHT22;5026;51.494;11.974;2023-11-22T07:36:44;-1.40;99.90
9971;DHT22;5026;51.494;11.974;2023-11-22T07:39:11;-1.40;99.90
9971;DHT22;5026;51.494;11.974;2023-11-22T07:41:38;-1.40;99.90
9971;DHT22;5026;51.494;11.974;2023-11-22T07:44:06;-1.30;99.90
9971;DHT22;5026;51.494;11.974;2023-11-22T07:46:34;-1.40;99.90
9971;DHT22;5026;51.494;11.974;2023-11-22T07:49:03;-1.20;99.90
9971;DHT22;5026;51.494;11.974;2023-11-22T07:51:31;-1.30;99.90
9971;DHT22;5026;51.494;11.974;2023-11-22T07:53:58;-1.30;99.90
9971;DHT22;5026;51.494;11.974;2023-11-22T07:56:25;-1.30;99.90
9971;DHT22;5026;51.494;11.974;2023-11-22T07:58:52;-1.30;99.90
9971;DHT22;5026;51.494;11.974;2023-11-22T08:01:19;-0.10;99.90
9971;DHT22;5026;51.494;11.974;2023-11-22T08:03:46;0.30;99.90
9971;DHT22;5026;51.494;11.974;2023-11-22T08:06:13;0.80;99.90
9971;DHT22;5026;51.494;11.974;2023-11-22T08:08:41;0.90;99.90
9971;DHT22;5026;51.494;11.974;2023-11-22T08:11:11;1.10;99.90
9971;DHT22;5026;51.494;11.974;2023-11-22T08:13:40;1.60;99.90
9971;DHT22;5026;51.494;11.974;2023-11-22T08:16:08;1.30;99.90
9971;DHT22;5026;51.494;11.974;2023-11-22T08:18:35;1.00;99.90
9971;DHT22;5026;51.494;11.974;2023-11-22T08:21:03;1.30;99.90
9971;DHT22;5026;51.494;11.974;2023-11-22T08:23:30;0.70;99.90
9971;DHT22;5026;51.494;11.974;2023-11-22T08:25:59;1.10;99.90
9971;DHT22;5026;51.494;11.974;2023-11-22T08:28:26;1.30;99.90
9971;DHT22;5026;51.494;11.974;2023-11-22T08:30:54;1.40;99.90
9971;DHT22;5026;51.494;11.974;2023-11-22T08:33:21;1.10;99.90
9971;DHT22;5026;51.494;11.974;2023-11-22T08:35:48;1.20;99.90
9971;DHT22;5026;51.494;11.974;2023-11-22T08:38:24;0.70;99.90
9971;DHT22;5026;51.494;11.974;2023-11-22T08:40:51;0.30;99.90
9971;DHT22;5026;51.494;11.974;2023-11-22T08:43:19;0.30;99.90
9971;DHT22;5026;51.494;11.974;2023-11-22T08:45:48;0.20;99.90
9971;DHT22;5026;51.494;11.974;2023-11-22T08:48:15;0.10;99.90
9971;DHT22;5026;51.494;11.974;2023-11-22T08:50:43;0.30;99.90
9971;DHT22;5026;51.494;11.974;2023-11-22T08:53:10;0.10;99.90
9971;DHT22;5026;51.494;11.974;2023-11-22T08:55:38;0.20;99.90
9971;DHT22;5026;51.494;11.974;2023-11-22T08:58:05;0.20;99.90
9971;DHT22;5026;51.494;11.974;2023-11-22T09:00:35;0.00;99.90
9971;DHT22;5026;51.494;11.974;2023-11-22T09:03:02;0.40;99.90
9971;DHT22;5026;51.494;11.974;2023-11-22T09:05:29;0.10;99.90
9971;DHT22;5026;51.494;11.974;2023-11-22T09:07:56;0.50;99.90
9971;DHT22;5026;51.494;11.974;2023-11-22T09:10:24;0.50;99.90
9971;DHT22;5026;51.494;11.974;2023-11-22T09:12:52;0.90;99.90
9971;DHT22;5026;51.494;11.974;2023-11-22T09:15:19;1.00;99.90
9971;DHT22;5026;51.494;11.974;2023-11-22T09:17:53;0.80;99.90
9971;DHT22;5026;51.494;11.974;2023-11-22T09:20:20;0.70;99.90
9971;DHT22;5026;51.494;11.974;2023-11-22T09:22:48;0.90;99.90
9971;DHT22;5026;51.494;11.974;2023-11-22T09:25:16;0.80;99.90
9971;DHT22;5026;51.494;11.974;2023-11-22T09:27:45;0.40;99.90
9971;DHT22;5026;51.494;11.974;2023-11-22T09:30:13;0.40;99.90
9971;DHT22;5026;51.494;11.974;2023-11-22T09:32:45;0.30;99.90
9971;DHT22;5026;51.494;11.974;2023-11-22T09:35:14;0.20;99.90
9971;DHT22;5026;51.494;11.974;2023-11-22T09:37:42;0.10;99.90
9971;DHT22;5026;51.494;11.974;2023-11-22T09:40:11;-0.30;99.90
9971;DHT22;5026;51.494;11.974;2023-11-22T09:42:39;-0.30;99.90
9971;DHT22;5026;51.494;11.974;2023-11-22T09:45:07;-0.10;99.90
9971;DHT22;5026;51.494;11.974;2023-11-22T09:47:34;0.10;99.90
9971;DHT22;5026;51.494;11.974;2023-11-22T09:50:02;0.50;99.90
9971;DHT22;5026;51.494;11.974;2023-11-22T09:52:34;0.90;99.90
9971;DHT22;5026;51.494;11.974;2023-11-22T09:55:05;1.20;99.90
9971;DHT22;5026;51.494;11.974;2023-11-22T09:57:32;1.50;99.90
9971;DHT22;5026;51.494;11.974;2023-11-22T10:00:01;1.20;99.90
9971;DHT22;5026;51.494;11.974;2023-11-22T10:02:28;1.10;99.90
9971;DHT22;5026;51.494;11.974;2023-11-22T10:04:56;1.20;99.90
9971;DHT22;5026;51.494;11.974;2023-11-22T10:07:23;0.90;99.90
9971;DHT22;5026;51.494;11.974;2023-11-22T10:09:52;0.60;99.90
9971;DHT22;5026;51.494;11.974;2023-11-22T10:12:19;0.50;99.90
9971;DHT22;5026;51.494;11.974;2023-11-22T10:14:47;0.50;99.90
9971;DHT22;5026;51.494;11.974;2023-11-22T10:17:14;0.70;99.90
9971;DHT22;5026;51.494;11.974;2023-11-22T10:19:42;0.90;99.90
9971;DHT22;5026;51.494;11.974;2023-11-22T10:22:09;1.10;99.90
9971;DHT22;5026;51.494;11.974;2023-11-22T10:24:43;1.10;99.90
9971;DHT22;5026;51.494;11.974;2023-11-22T10:27:13;1.30;99.90
9971;DHT22;5026;51.494;11.974;2023-11-22T10:29:41;1.30;99.90
9971;DHT22;5026;51.494;11.974;2023-11-22T10:32:09;1.30;99.90
9971;DHT22;5026;51.494;11.974;2023-11-22T10:34:36;0.70;99.90
9971;DHT22;5026;51.494;11.974;2023-11-22T10:37:03;1.10;99.90
9971;DHT22;5026;51.494;11.974;2023-11-22T10:39:30;1.40;99.90
9971;DHT22;5026;51.494;11.974;2023-11-22T10:41:59;1.50;99.90
9971;DHT22;5026;51.494;11.974;2023-11-22T10:44:27;1.80;99.90
9971;DHT22;5026;51.494;11.974;2023-11-22T10:46:55;1.80;99.90
9971;DHT22;5026;51.494;11.974;2023-11-22T10:49:22;2.00;99.90
9971;DHT22;5026;51.494;11.974;2023-11-22T10:51:51;1.70;99.70
9971;DHT22;5026;51.494;11.974;2023-11-22T10:54:20;1.40;99.90
9971;DHT22;5026;51.494;11.974;2023-11-22T10:56:54;1.40;99.90
9971;DHT22;5026;51.494;11.974;2023-11-22T10:59:22;1.20;99.90
9971;DHT22;5026;51.494;11.974;2023-11-22T11:01:56;1.20;99.90
9971;DHT22;5026;51.494;11.974;2023-11-22T11:04:29;1.60;99.90
9971;DHT22;5026;51.494;11.974;2023-11-22T11:07:01;1.60;99.90
9971;DHT22;5026;51.494;11.974;2023-11-22T11:09:28;1.30;99.90
9971;DHT22;5026;51.494;11.974;2023-11-22T11:11:58;1.10;99.90
9971;DHT22;5026;51.494;11.974;2023-11-22T11:14:26;0.60;99.90
9971;DHT22;5026;51.494;11.974;2023-11-22T11:16:55;0.60;99.90
9971;DHT22;5026;51.494;11.974;2023-11-22T11:19:24;0.50;99.90
9971;DHT22;5026;51.494;11.974;2023-11-22T11:21:54;0.40;99.90
9971;DHT22;5026;51.494;11.974;2023-11-22T11:24:23;0.90;99.90
9971;DHT22;5026;51.494;11.974;2023-11-22T11:26:49;0.90;99.90
9971;DHT22;5026;51.494;11.974;2023-11-22T11:29:38;1.10;99.90
9971;DHT22;5026;51.494;11.974;2023-11-22T11:32:11;1.00;99.90
9971;DHT22;5026;51.494;11.974;2023-11-22T11:34:47;1.10;99.90
9971;DHT22;5026;51.494;11.974;2023-11-22T11:37:15;1.30;99.90
9971;DHT22;5026;51.494;11.974;2023-11-22T11:39:45;1.40;99.90
9971;DHT22;5026;51.494;11.974;2023-11-22T11:42:13;1.90;99.90
9971;DHT22;5026;51.494;11.974;2023-11-22T11:44:51;1.80;99.90
9971;DHT22;5026;51.494;11.974;2023-11-22T11:47:30;1.80;99.90
9971;DHT22;5026;51.494;11.974;2023-11-22T11:49:57;1.60;99.90
9971;DHT22;5026;51.494;11.974;2023-11-22T11:52:25;1.70;99.90
9971;DHT22;5026;51.494;11.974;2023-11-22T11:54:52;1.80;99.90
9971;DHT22;5026;51.494;11.974;2023-11-22T11:57:19;1.40;99.90
9971;DHT22;5026;51.494;11.974;2023-11-22T11:59:47;1.60;99.90
9971;DHT22;5026;51.494;11.974;2023-11-22T12:02:15;1.70;99.90
9971;DHT22;5026;51.494;11.974;2023-11-22T12:04:44;1.70;99.90
9971;DHT22;5026;51.494;11.974;2023-11-22T12:07:12;2.00;99.90
9971;DHT22;5026;51.494;11.974;2023-11-22T12:09:39;2.00;99.90
9971;DHT22;5026;51.494;11.974;2023-11-22T12:12:06;2.20;99.90
9971;DHT22;5026;51.494;11.974;2023-11-22T12:14:33;2.20;99.90
9971;DHT22;5026;51.494;11.974;2023-11-22T12:17:00;1.70;99.90
9971;DHT22;5026;51.494;11.974;2023-11-22T12:19:28;1.90;99.90
9971;DHT22;5026;51.494;11.974;2023-11-22T12:21:58;1.80;99.90
9971;DHT22;5026;51.494;11.974;2023-11-22T12:24:25;1.60;99.90
9971;DHT22;5026;51.494;11.974;2023-11-22T12:26:52;1.60;99.90
9971;DHT22;5026;51.494;11.974;2023-11-22T12:29:20;1.80;99.90
9971;DHT22;5026;51.494;11.974;2023-11-22T12:31:49;1.90;99.90
9971;DHT22;5026;51.494;11.974;2023-11-22T12:34:18;2.20;99.80
9971;DHT22;5026;51.494;11.974;2023-11-22T12:36:46;2.20;99.90
9971;DHT22;5026;51.494;11.974;2023-11-22T12:39:15;2.20;99.90
9971;DHT22;5026;51.494;11.974;2023-11-22T12:41:47;2.30;99.90
9971;DHT22;5026;51.494;11.974;2023-11-22T12:44:16;2.10;99.60
9971;DHT22;5026;51.494;11.974;2023-11-22T12:46:47;2.00;99.60
9971;DHT22;5026;51.494;11.974;2023-11-22T12:49:15;2.20;99.80
9971;DHT22;5026;51.494;11.974;2023-11-22T12:51:48;2.40;99.60
9971;DHT22;5026;51.494;11.974;2023-11-22T12:54:17;1.90;99.90
9971;DHT22;5026;51.494;11.974;2023-11-22T12:56:47;2.00;99.90
9971;DHT22;5026;51.494;11.974;2023-11-22T12:59:15;1.90;99.90
9971;DHT22;5026;51.494;11.974;2023-11-22T13:01:42;2.20;99.90
9971;DHT22;5026;51.494;11.974;2023-11-22T13:04:09;2.40;99.20
9971;DHT22;5026;51.494;11.974;2023-11-22T13:06:37;2.40;99.50
9971;DHT22;5026;51.494;11.974;2023-11-22T13:09:04;2.40;99.50
9971;DHT22;5026;51.494;11.974;2023-11-22T13:11:33;2.50;99.40
9971;DHT22;5026;51.494;11.974;2023-11-22T13:14:00;3.30;99.50
9971;DHT22;5026;51.494;11.974;2023-11-22T13:16:28;2.70;99.30
9971;DHT22;5026;51.494;11.974;2023-11-22T13:18:54;2.90;99.30
9971;DHT22;5026;51.494;11.974;2023-11-22T13:21:21;2.90;99.10
9971;DHT22;5026;51.494;11.974;2023-11-22T13:23:48;2.80;99.00
9971;DHT22;5026;51.494;11.974;2023-11-22T13:26:15;3.00;98.90
9971;DHT22;5026;51.494;11.974;2023-11-22T13:28:44;3.00;98.80
9971;DHT22;5026;51.494;11.974;2023-11-22T13:31:11;3.10;99.00
9971;DHT22;5026;51.494;11.974;2023-11-22T13:33:38;3.00;98.80
9971;DHT22;5026;51.494;11.974;2023-11-22T13:36:09;3.00;99.00
9971;DHT22;5026;51.494;11.974;2023-11-22T13:38:36;2.70;98.70
9971;DHT22;5026;51.494;11.974;2023-11-22T13:41:05;2.70;99.10
9971;DHT22;5026;51.494;11.974;2023-11-22T13:43:32;2.70;99.20
9971;DHT22;5026;51.494;11.974;2023-11-22T13:46:01;2.80;99.20
9971;DHT22;5026;51.494;11.974;2023-11-22T13:48:28;2.80;99.10
9971;DHT22;5026;51.494;11.974;2023-11-22T13:50:57;2.80;99.10
9971;DHT22;5026;51.494;11.974;2023-11-22T13:53:25;2.80;99.10
9971;DHT22;5026;51.494;11.974;2023-11-22T13:55:56;2.70;99.40
9971;DHT22;5026;51.494;11.974;2023-11-22T13:58:23;2.70;99.20
9971;DHT22;5026;51.494;11.974;2023-11-22T14:00:50;2.60;99.30
9971;DHT22;5026;51.494;11.974;2023-11-22T14:03:21;2.60;99.30
9971;DHT22;5026;51.494;11.974;2023-11-22T14:05:48;2.60;99.30
9971;DHT22;5026;51.494;11.974;2023-11-22T14:08:15;2.70;99.10
9971;DHT22;5026;51.494;11.974;2023-11-22T14:10:42;2.60;99.10
9971;DHT22;5026;51.494;11.974;2023-11-22T14:13:10;2.60;98.90
9971;DHT22;5026;51.494;11.974;2023-11-22T14:15:37;2.80;98.90
9971;DHT22;5026;51.494;11.974;2023-11-22T14:18:04;2.70;98.90
9971;DHT22;5026;51.494;11.974;2023-11-22T14:20:33;2.60;98.90
9971;DHT22;5026;51.494;11.974;2023-11-22T14:23:01;2.60;99.00
9971;DHT22;5026;51.494;11.974;2023-11-22T14:25:28;2.50;99.00
9971;DHT22;5026;51.494;11.974;2023-11-22T14:27:55;2.50;99.00
9971;DHT22;5026;51.494;11.974;2023-11-22T14:30:24;2.40;99.00
9971;DHT22;5026;51.494;11.974;2023-11-22T14:32:54;2.50;99.10
9971;DHT22;5026;51.494;11.974;2023-11-22T14:35:23;2.40;99.10
9971;DHT22;5026;51.494;11.974;2023-11-22T14:37:52;2.20;99.20
9971;DHT22;5026;51.494;11.974;2023-11-22T14:40:19;2.20;99.40
9971;DHT22;5026;51.494;11.974;2023-11-22T14:42:46;2.20;99.40
9971;DHT22;5026;51.494;11.974;2023-11-22T14:45:13;2.20;99.50
9971;DHT22;5026;51.494;11.974;2023-11-22T14:47:40;2.10;99.40
9971;DHT22;5026;51.494;11.974;2023-11-22T14:50:10;2.20;99.50
9971;DHT22;5026;51.494;11.974;2023-11-22T14:52:39;2.20;99.50
9971;DHT22;5026;51.494;11.974;2023-11-22T14:55:08;2.10;99.60
9971;DHT22;5026;51.494;11.974;2023-11-22T14:57:37;2.10;99.50
9971;DHT22;5026;51.494;11.974;2023-11-22T15:00:05;2.00;99.70
9971;DHT22;5026;51.494;11.974;2023-11-22T15:02:35;2.10;99.60
9971;DHT22;5026;51.494;11.974;2023-11-22T15:05:02;2.10;99.50
9971;DHT22;5026;51.494;11.974;2023-11-22T15:07:30;2.20;99.50
9971;DHT22;5026;51.494;11.974;2023-11-22T15:09:57;2.10;99.90
9971;DHT22;5026;51.494;11.974;2023-11-22T15:12:25;2.10;99.70
9971;DHT22;5026;51.494;11.974;2023-11-22T15:14:56;2.20;99.80
9971;DHT22;5026;51.494;11.974;2023-11-22T15:17:22;2.00;99.70
9971;DHT22;5026;51.494;11.974;2023-11-22T15:19:49;2.00;99.80
9971;DHT22;5026;51.494;11.974;2023-11-22T15:22:16;2.10;99.90
9971;DHT22;5026;51.494;11.974;2023-11-22T15:24:43;2.00;99.90
9971;DHT22;5026;51.494;11.974;2023-11-22T15:27:11;1.90;99.90
9971;DHT22;5026;51.494;11.974;2023-11-22T15:29:39;2.00;99.90
9971;DHT22;5026;51.494;11.974;2023-11-22T15:32:06;2.00;99.90
9971;DHT22;5026;51.494;11.974;2023-11-22T15:34:33;2.00;99.90
9971;DHT22;5026;51.494;11.974;2023-11-22T15:37:01;2.00;99.80
9971;DHT22;5026;51.494;11.974;2023-11-22T15:39:28;2.10;99.80
9971;DHT22;5026;51.494;11.974;2023-11-22T15:41:55;2.00;99.80
9971;DHT22;5026;51.494;11.974;2023-11-22T15:44:22;1.90;99.80
9971;DHT22;5026;51.494;11.974;2023-11-22T15:46:50;2.10;99.90
9971;DHT22;5026;51.494;11.974;2023-11-22T15:49:18;1.80;99.90
9971;DHT22;5026;51.494;11.974;2023-11-22T15:51:45;2.30;99.90
9971;DHT22;5026;51.494;11.974;2023-11-22T15:54:12;1.80;99.80
9971;DHT22;5026;51.494;11.974;2023-11-22T15:56:39;1.70;99.90
9971;DHT22;5026;51.494;11.974;2023-11-22T15:59:06;1.70;99.90